createdAt,value
2023-01-23T00:00:58.511Z,910.00
2023-01-23T00:01:58.676Z,880.00
2023-01-23T00:02:58.915Z,889.00
2023-01-23T00:03:59.206Z,751.00
2023-01-23T00:04:59.390Z,664.00
2023-01-23T00:05:59.625Z,725.00
2023-01-23T00:06:59.859Z,807.00
2023-01-23T00:08:00.125Z,709.00
2023-01-23T00:10:00.627Z,661.00
2023-01-23T00:11:00.869Z,690.00
2023-01-23T00:12:01.119Z,652.00
2023-01-23T00:13:01.355Z,651.00
2023-01-23T00:14:01.650Z,685.00
2023-01-23T00:15:01.915Z,655.00
2023-01-23T00:16:02.332Z,650.00
2023-01-23T00:17:02.354Z,634.00
2023-01-23T00:18:02.665Z,660.00
2023-01-23T00:19:02.927Z,669.00
2023-01-23T00:20:03.168Z,651.00
2023-01-23T00:21:03.411Z,628.00
2023-01-23T00:22:03.633Z,657.00
2023-01-23T00:23:03.872Z,729.00
2023-01-23T00:24:04.109Z,648.00
2023-01-23T00:25:04.333Z,605.00
2023-01-23T00:30:05.541Z,632.00
2023-01-23T00:31:06.095Z,660.00
2023-01-23T00:32:05.976Z,644.00
2023-01-23T00:33:06.198Z,682.00
2023-01-23T00:34:06.485Z,658.00
2023-01-23T01:27:15.549Z,665.00
2023-01-23T01:28:15.697Z,625.00
2023-01-23T01:29:16.020Z,670.00
2023-01-23T01:30:16.243Z,683.00
2023-01-23T01:31:16.530Z,728.00
2023-01-23T01:32:16.713Z,655.00
2023-01-23T01:33:16.932Z,647.00
2023-01-23T01:34:17.167Z,745.00
2023-01-23T01:35:17.401Z,691.00
2023-01-23T01:36:17.641Z,686.00
2023-01-23T01:37:17.834Z,678.00
2023-01-23T01:38:18.132Z,686.00
2023-01-23T01:39:18.377Z,640.00
2023-01-23T01:40:18.958Z,729.00
2023-01-23T01:41:18.875Z,719.00
2023-01-23T01:42:19.112Z,708.00
2023-01-23T01:43:19.342Z,680.00
2023-01-23T01:44:19.599Z,671.00
2023-01-23T01:45:19.848Z,665.00
2023-01-23T01:46:20.134Z,758.00
2023-01-23T01:47:20.435Z,658.00
2023-01-23T01:48:20.591Z,677.00
2023-01-23T01:49:20.828Z,665.00
2023-01-23T01:50:21.411Z,626.00
2023-01-23T01:51:21.316Z,647.00
2023-01-23T01:52:21.491Z,619.00
2023-01-23T01:53:21.734Z,648.00
2023-01-23T02:09:25.618Z,631.00
2023-01-23T02:10:25.862Z,627.00
2023-01-23T02:11:26.122Z,589.00
2023-01-23T02:12:26.346Z,608.00
2023-01-23T02:13:26.595Z,633.00
2023-01-23T02:14:26.832Z,638.00
2023-01-23T02:15:27.060Z,613.00
2023-01-23T02:16:27.420Z,579.00
2023-01-23T02:17:27.619Z,582.00
2023-01-23T02:18:27.756Z,615.00
2023-01-23T02:19:27.995Z,599.00
2023-01-23T02:20:28.239Z,612.00
2023-01-23T02:21:28.474Z,606.00
2023-01-23T02:22:28.693Z,610.00
2023-01-23T02:23:28.926Z,649.00
2023-01-23T02:24:29.255Z,640.00
2023-01-23T02:25:29.434Z,619.00
2023-01-23T02:26:29.705Z,634.00
2023-01-23T02:27:29.952Z,596.00
2023-01-23T02:28:30.233Z,621.00
2023-01-23T02:29:30.459Z,580.00
2023-01-23T02:30:30.693Z,584.00
2023-01-23T02:31:31.060Z,595.00
2023-01-23T02:32:31.200Z,611.00
2023-01-23T02:33:31.391Z,569.00
2023-01-23T02:34:31.619Z,584.00
2023-01-23T02:35:31.849Z,593.00
2023-01-23T02:36:32.095Z,609.00
2023-01-23T02:37:32.363Z,574.00
2023-01-23T02:38:32.632Z,547.00
2023-01-23T02:39:32.849Z,590.00
2023-01-23T02:40:33.089Z,614.00
2023-01-23T02:41:33.346Z,631.00
2023-01-23T02:42:33.566Z,578.00
2023-01-23T02:43:33.791Z,589.00
2023-01-23T02:44:34.026Z,623.00
2023-01-23T02:51:35.694Z,636.00
2023-01-23T02:52:35.941Z,612.00
2023-01-23T02:53:36.170Z,624.00
2023-01-23T02:54:36.431Z,595.00
2023-01-23T02:55:36.672Z,608.00
2023-01-23T02:56:36.930Z,623.00
2023-01-23T02:57:37.157Z,604.00
2023-01-23T02:58:37.421Z,593.00
2023-01-23T02:59:37.695Z,619.00
2023-01-23T03:00:38.006Z,639.00
2023-01-23T03:01:39.111Z,658.00
2023-01-23T03:02:38.295Z,633.00
2023-01-23T03:03:38.197Z,652.00
2023-01-23T03:04:38.174Z,694.00
2023-01-23T03:05:38.170Z,650.00
2023-01-23T03:06:38.196Z,647.00
2023-01-23T03:07:38.141Z,611.00
2023-01-23T03:08:38.125Z,594.00
2023-01-23T03:09:38.106Z,571.00
2023-01-23T03:10:38.108Z,618.00
2023-01-23T03:11:38.091Z,616.00
2023-01-23T03:12:38.267Z,591.00
2023-01-23T03:13:38.473Z,590.00
2023-01-23T03:14:38.712Z,594.00
2023-01-23T03:15:38.955Z,593.00
2023-01-23T03:16:39.210Z,564.00
2023-01-23T03:17:39.426Z,589.00
2023-01-23T03:18:52.687Z,621.00
2023-01-23T03:19:40.658Z,621.00
2023-01-23T03:20:39.661Z,574.00
2023-01-23T03:21:39.671Z,579.00
2023-01-23T03:22:39.650Z,569.00
2023-01-23T03:23:39.764Z,591.00
2023-01-23T03:24:39.771Z,632.00
2023-01-23T03:25:39.773Z,595.00
2023-01-23T03:26:39.778Z,595.00
2023-01-23T03:27:39.936Z,590.00
2023-01-23T03:28:40.241Z,652.00
2023-01-23T03:29:40.611Z,612.00
2023-01-23T03:30:40.758Z,592.00
2023-01-23T03:51:45.708Z,569.00
2023-01-23T03:52:45.978Z,588.00
2023-01-23T03:53:46.209Z,612.00
2023-01-23T03:54:46.435Z,556.00
2023-01-23T03:55:46.698Z,593.00
2023-01-23T03:56:46.907Z,598.00
2023-01-23T03:57:47.167Z,570.00
2023-01-23T03:58:47.404Z,505.00
2023-01-23T03:59:47.659Z,536.00
2023-01-23T04:00:47.901Z,595.00
2023-01-23T04:01:48.150Z,571.00
2023-01-23T04:02:48.428Z,562.00
2023-01-23T04:03:48.610Z,557.00
2023-01-23T04:04:48.937Z,560.00
2023-01-23T04:05:49.101Z,516.00
2023-01-23T04:06:49.327Z,541.00
2023-01-23T04:07:49.582Z,587.00
2023-01-23T04:08:49.808Z,568.00
2023-01-23T04:09:50.077Z,578.00
2023-01-23T04:10:50.325Z,598.00
2023-01-23T04:11:50.595Z,608.00
2023-01-23T04:31:55.728Z,590.00
2023-01-23T04:32:55.989Z,593.00
2023-01-23T04:33:56.218Z,604.00
2023-01-23T05:21:05.615Z,866.00
2023-01-23T05:22:05.768Z,839.00
2023-01-23T05:23:06.029Z,879.00
2023-01-23T05:24:06.254Z,827.00
2023-01-23T05:25:06.503Z,820.00
2023-01-23T05:26:06.757Z,802.00
2023-01-23T06:02:15.686Z,1127.00
2023-01-23T06:03:15.926Z,840.00
2023-01-23T06:04:16.246Z,816.00
2023-01-23T06:05:16.446Z,672.00
2023-01-23T06:06:16.779Z,637.00
2023-01-23T06:07:16.974Z,628.00
2023-01-23T06:41:25.578Z,1090.00
2023-01-23T06:42:25.871Z,1067.00
2023-01-23T06:43:26.064Z,1054.00
2023-01-23T06:44:26.321Z,1166.00
2023-01-23T06:45:26.581Z,1150.00
2023-01-23T06:46:26.878Z,1246.00
2023-01-23T06:47:27.087Z,1310.00
2023-01-23T06:48:27.314Z,1317.00
2023-01-23T06:49:27.550Z,1279.00
2023-01-23T06:50:27.752Z,1167.00
2023-01-23T06:51:28.097Z,1232.00
2023-01-23T06:52:28.162Z,1196.00
2023-01-23T06:53:28.492Z,1059.00
2023-01-23T06:54:28.803Z,1100.00
2023-01-23T06:55:29.093Z,1068.00
2023-01-23T06:56:29.386Z,919.00
2023-01-23T06:57:29.683Z,717.00
2023-01-23T06:58:29.854Z,751.00
2023-01-23T06:59:30.118Z,799.00
2023-01-23T07:00:30.430Z,732.00
2023-01-23T07:01:30.654Z,666.00
2023-01-23T07:02:30.921Z,666.00
2023-01-23T07:03:31.164Z,632.00
2023-01-23T07:04:31.474Z,663.00
2023-01-23T07:05:31.761Z,728.00
2023-01-23T07:06:32.115Z,695.00
2023-01-23T07:07:32.296Z,803.00
2023-01-23T07:08:32.588Z,623.00
2023-01-23T07:09:32.884Z,625.00
2023-01-23T07:10:33.192Z,605.00
2023-01-23T07:11:33.506Z,603.00
2023-01-23T07:12:33.818Z,641.00
2023-01-23T07:13:35.054Z,661.00
2023-01-23T07:14:34.131Z,666.00
2023-01-23T07:15:34.177Z,678.00
2023-01-23T07:16:34.207Z,776.00
2023-01-23T07:17:34.243Z,867.00
2023-01-23T07:18:34.269Z,902.00
2023-01-23T07:19:34.540Z,830.00
2023-01-23T07:20:34.733Z,791.00
2023-01-23T07:21:35.092Z,736.00
2023-01-23T07:22:35.407Z,642.00
2023-01-23T07:23:35.631Z,684.00
2023-01-23T07:24:36.558Z,821.00
2023-01-23T07:25:37.643Z,811.00
2023-01-23T07:26:36.048Z,737.00
2023-01-23T07:27:36.238Z,766.00
2023-01-23T07:28:36.192Z,844.00
2023-01-23T07:29:36.272Z,887.00
2023-01-23T07:30:36.367Z,971.00
2023-01-23T07:31:36.457Z,932.00
2023-01-23T07:32:36.485Z,912.00
2023-01-23T07:33:36.528Z,968.00
2023-01-23T07:34:36.574Z,912.00
2023-01-23T07:35:36.642Z,800.00
2023-01-23T07:36:36.714Z,784.00
2023-01-23T07:37:36.743Z,833.00
2023-01-23T07:38:36.878Z,835.00
2023-01-23T07:39:36.858Z,772.00
2023-01-23T07:40:36.927Z,793.00
2023-01-23T07:41:36.987Z,791.00
2023-01-23T07:42:37.021Z,786.00
2023-01-23T07:43:37.070Z,869.00
2023-01-23T07:44:37.083Z,840.00
2023-01-23T07:45:37.183Z,800.00
2023-01-23T07:46:37.286Z,804.00
2023-01-23T07:47:37.214Z,773.00
2023-01-23T07:48:37.238Z,799.00
2023-01-23T07:49:37.265Z,752.00
2023-01-23T07:50:37.305Z,907.00
2023-01-23T07:51:37.366Z,933.00
2023-01-23T07:52:37.421Z,769.00
2023-01-23T07:53:37.437Z,661.00
2023-01-23T07:54:37.561Z,637.00
2023-01-23T07:55:37.532Z,747.00
2023-01-23T07:56:37.560Z,705.00
2023-01-23T07:57:37.885Z,592.00
2023-01-23T07:58:38.120Z,620.00
2023-01-23T07:59:38.349Z,607.00
2023-01-23T08:00:38.658Z,593.00
2023-01-23T08:01:38.788Z,602.00
2023-01-23T08:02:39.144Z,591.00
2023-01-23T08:03:39.456Z,602.00
2023-01-23T08:04:39.710Z,643.00
2023-01-23T08:05:40.886Z,597.00
2023-01-23T08:06:40.022Z,608.00
2023-01-23T08:07:40.045Z,643.00
2023-01-23T08:08:40.067Z,684.00
2023-01-23T08:09:40.179Z,823.00
2023-01-23T08:10:40.124Z,950.00
2023-01-23T08:11:40.358Z,972.00
2023-01-23T08:12:40.561Z,914.00
2023-01-23T08:13:40.748Z,819.00
2023-01-23T08:14:41.081Z,1019.00
2023-01-23T08:15:41.294Z,1189.00
2023-01-23T08:16:41.598Z,1096.00
2023-01-23T08:17:41.786Z,978.00
2023-01-23T08:18:41.993Z,1041.00
2023-01-23T08:20:42.286Z,940.00
2023-01-23T08:21:42.311Z,738.00
2023-01-23T08:22:42.352Z,664.00
2023-01-23T08:23:42.354Z,634.00
2023-01-23T08:24:42.479Z,622.00
2023-01-23T08:39:45.827Z,737.00
2023-01-23T08:40:45.773Z,842.00
2023-01-23T08:41:45.819Z,1065.00
2023-01-23T08:42:45.817Z,1194.00
2023-01-23T08:43:45.899Z,1147.00
2023-01-23T09:19:55.596Z,843.00
2023-01-23T09:20:55.904Z,907.00
2023-01-23T09:21:56.165Z,854.00
2023-01-23T09:22:56.450Z,861.00
2023-01-23T09:23:56.716Z,656.00
2023-01-23T10:01:05.732Z,1040.00
2023-01-23T10:02:06.041Z,1107.00
2023-01-23T10:03:06.170Z,1118.00
2023-01-23T10:05:06.696Z,950.00
2023-01-23T10:06:07.006Z,957.00
2023-01-23T10:07:07.195Z,913.00
2023-01-23T10:08:07.530Z,848.00
2023-01-23T10:09:07.720Z,871.00
2023-01-23T10:10:08.143Z,844.00
2023-01-23T10:11:08.274Z,908.00
2023-01-23T10:12:08.594Z,887.00
2023-01-23T10:13:08.803Z,877.00
2023-01-23T10:19:10.450Z,618.00
2023-01-23T10:52:16.133Z,599.00
2023-01-23T10:53:15.577Z,619.00
2023-01-23T10:55:15.683Z,523.00
2023-01-23T10:56:15.699Z,570.00
2023-01-23T10:57:15.825Z,592.00
2023-01-23T10:58:16.012Z,553.00
2023-01-23T10:59:16.245Z,500.00
2023-01-23T11:00:16.497Z,518.00
2023-01-23T11:01:18.480Z,568.00
2023-01-23T11:02:16.850Z,588.00
2023-01-23T11:03:16.856Z,630.00
2023-01-23T11:04:16.819Z,589.00
2023-01-23T11:05:16.878Z,547.00
2023-01-23T11:06:17.115Z,535.00
2023-01-23T11:08:17.684Z,566.00
2023-01-23T11:09:17.848Z,517.00
2023-01-23T11:11:18.130Z,493.00
2023-01-23T11:12:18.154Z,492.00
2023-01-23T11:13:18.120Z,527.00
2023-01-23T11:14:18.113Z,574.00
2023-01-23T11:16:18.118Z,493.00
2023-01-23T11:17:18.066Z,498.00
2023-01-23T11:18:18.306Z,488.00
2023-01-23T11:20:18.108Z,513.00
2023-01-23T11:21:18.079Z,505.00
2023-01-23T11:22:18.079Z,583.00
2023-01-23T11:23:18.093Z,620.00
2023-01-23T11:24:20.410Z,549.00
2023-01-23T11:26:18.149Z,560.00
2023-01-23T11:27:18.175Z,578.00
2023-01-23T11:28:18.328Z,549.00
2023-01-23T11:29:18.232Z,539.00
2023-01-23T11:30:18.378Z,532.00
2023-01-23T11:31:18.386Z,605.00
2023-01-23T11:32:18.605Z,571.00
2023-01-23T11:33:18.751Z,578.00
2023-01-23T11:34:19.036Z,555.00
2023-01-23T11:35:19.599Z,562.00
2023-01-23T11:39:20.188Z,550.00
2023-01-23T13:02:25.650Z,501.00
2023-01-23T13:03:25.870Z,569.00
2023-01-23T13:04:25.554Z,613.00
2023-01-23T13:05:25.571Z,621.00
2023-01-23T13:06:25.749Z,656.00
2023-01-23T13:07:25.630Z,655.00
2023-01-23T13:08:26.107Z,645.00
2023-01-23T13:09:25.634Z,570.00
2023-01-23T13:10:25.627Z,588.00
2023-01-23T13:11:25.603Z,595.00
2023-01-23T13:12:25.644Z,632.00
2023-01-23T13:13:25.650Z,606.00
2023-01-23T13:14:31.440Z,601.00
2023-01-23T13:15:39.179Z,601.00
2023-01-23T13:16:26.609Z,603.00
2023-01-23T13:17:25.559Z,610.00
2023-01-23T13:18:25.618Z,617.00
2023-01-23T13:38:25.661Z,850.00
2023-01-23T13:39:25.892Z,693.00
2023-01-23T13:40:26.129Z,626.00
2023-01-23T13:41:26.352Z,608.00
2023-01-23T13:50:28.428Z,674.00
2023-01-23T13:51:28.670Z,649.00
2023-01-23T13:52:28.906Z,578.00
2023-01-23T13:53:29.105Z,567.00
2023-01-23T13:54:29.392Z,608.00
2023-01-23T13:55:29.611Z,639.00
2023-01-23T13:56:29.836Z,719.00
2023-01-23T13:57:30.135Z,656.00
2023-01-23T13:58:30.376Z,735.00
2023-01-23T13:59:30.599Z,788.00
2023-01-23T14:00:30.878Z,664.00
2023-01-23T14:01:31.122Z,657.00
2023-01-23T14:02:31.340Z,692.00
2023-01-23T15:21:35.602Z,1232.00
2023-01-23T15:22:35.791Z,1194.00
2023-01-23T15:23:36.189Z,1214.00
2023-01-23T15:24:36.314Z,1350.00
2023-01-23T15:25:36.560Z,1386.00
2023-01-23T15:26:36.876Z,1438.00
2023-01-23T15:27:37.076Z,1547.00
2023-01-23T15:28:37.301Z,1590.00
2023-01-23T15:29:37.591Z,1643.00
2023-01-23T15:30:37.867Z,1700.00
2023-01-23T15:31:38.221Z,1689.00
2023-01-23T15:32:38.228Z,1664.00
2023-01-23T15:33:38.503Z,1671.00
2023-01-23T15:34:38.680Z,1717.00
2023-01-23T15:35:38.923Z,1596.00
2023-01-23T15:36:39.209Z,1361.00
2023-01-23T15:37:39.416Z,1363.00
2023-01-23T15:38:39.706Z,1323.00
2023-01-23T15:39:39.884Z,1392.00
2023-01-23T15:40:40.078Z,1481.00
2023-01-23T15:41:40.366Z,1466.00
2023-01-23T15:42:40.569Z,1472.00
2023-01-23T15:43:40.781Z,1493.00
2023-01-23T15:44:41.011Z,1612.00
2023-01-23T15:45:41.235Z,1456.00
2023-01-23T15:46:41.453Z,1320.00
2023-01-23T15:47:41.741Z,1305.00
2023-01-23T15:48:41.994Z,1387.00
2023-01-23T15:49:42.178Z,1441.00
2023-01-23T16:04:45.776Z,1470.00
2023-01-23T16:05:45.984Z,1483.00
2023-01-23T16:06:46.181Z,1553.00
2023-01-23T16:07:46.395Z,1610.00
2023-01-23T16:08:50.045Z,1504.00
2023-01-23T16:09:47.543Z,1504.00
2023-01-23T16:10:46.511Z,1466.00
2023-01-23T16:11:46.458Z,1488.00
2023-01-23T16:12:46.410Z,1535.00
2023-01-23T16:13:46.361Z,1520.00
2023-01-23T16:14:46.333Z,1454.00
2023-01-23T16:15:46.436Z,1458.00
2023-01-23T16:16:46.244Z,1644.00
2023-01-23T16:17:46.230Z,1621.00
2023-01-23T16:18:46.232Z,1643.00
2023-01-23T16:19:46.244Z,1555.00
2023-01-23T16:20:46.299Z,1459.00
2023-01-23T16:21:52.912Z,1505.00
2023-01-23T16:22:47.533Z,1509.00
2023-01-23T16:23:47.752Z,1517.00
2023-01-23T16:24:46.536Z,1538.00
2023-01-23T16:25:46.882Z,1569.00
2023-01-23T16:26:46.396Z,1637.00
2023-01-23T16:27:46.363Z,1599.00
2023-01-23T16:28:46.327Z,1654.00
2023-01-23T16:29:46.311Z,1586.00
2023-01-23T16:30:46.305Z,1839.00
2023-01-23T16:31:46.276Z,2382.00
2023-01-23T16:32:46.325Z,3012.00
2023-01-23T16:33:46.254Z,3009.00
2023-01-23T16:34:46.266Z,2417.00
2023-01-23T16:35:46.280Z,2037.00
2023-01-23T16:36:46.285Z,1917.00
2023-01-23T16:37:46.297Z,1947.00
2023-01-23T16:38:46.288Z,1865.00
2023-01-23T16:39:46.323Z,1794.00
2023-01-23T16:40:46.389Z,1720.00
2023-01-23T16:41:46.294Z,1643.00
2023-01-23T16:42:46.299Z,1676.00
2023-01-23T16:43:46.297Z,1943.00
2023-01-23T16:44:46.386Z,2101.00
2023-01-23T16:45:46.297Z,2088.00
2023-01-23T16:46:46.325Z,1923.00
2023-01-23T16:47:46.301Z,1784.00
2023-01-23T16:48:46.321Z,1979.00
2023-01-23T16:49:52.781Z,2140.00
2023-01-23T16:50:47.272Z,2109.00
2023-01-23T16:51:46.237Z,2040.00
2023-01-23T16:52:46.203Z,2054.00
2023-01-23T16:53:46.145Z,2095.00
2023-01-23T16:54:46.115Z,2182.00
2023-01-23T16:55:46.085Z,1939.00
2023-01-23T16:56:46.126Z,1862.00
2023-01-23T16:57:46.011Z,1865.00
2023-01-23T16:58:45.988Z,1981.00
2023-01-23T16:59:45.958Z,2047.00
2023-01-23T17:00:46.056Z,2157.00
2023-01-23T17:01:46.032Z,2129.00
2023-01-23T17:02:46.006Z,2081.00
2023-01-23T17:03:45.985Z,2123.00
2023-01-23T17:04:46.005Z,2091.00
2023-01-23T17:05:46.027Z,2129.00
2023-01-23T17:06:46.040Z,2177.00
2023-01-23T17:07:46.063Z,2218.00
2023-01-23T17:08:46.061Z,2179.00
2023-01-23T17:09:46.093Z,2103.00
2023-01-23T17:10:46.910Z,2036.00
2023-01-23T17:11:46.140Z,1998.00
2023-01-23T17:12:46.239Z,1914.00
2023-01-23T17:13:46.182Z,1868.00
2023-01-23T17:14:46.211Z,1943.00
2023-01-23T17:15:46.256Z,2082.00
2023-01-23T17:16:46.300Z,2094.00
2023-01-23T17:17:46.281Z,1861.00
2023-01-23T17:18:46.296Z,1984.00
2023-01-23T17:19:46.359Z,1853.00
2023-01-23T17:20:46.329Z,1818.00
2023-01-23T17:21:46.347Z,1833.00
2023-01-23T17:22:46.364Z,1858.00
2023-01-23T17:23:46.426Z,1955.00
2023-01-23T17:24:46.462Z,1882.00
2023-01-23T17:25:59.140Z,1891.00
2023-01-23T17:26:47.364Z,1892.00
2023-01-23T17:27:55.243Z,1893.00
2023-01-23T17:28:47.377Z,1894.00
2023-01-23T17:29:46.271Z,1898.00
2023-01-23T17:30:46.249Z,1872.00
2023-01-23T17:31:46.273Z,1816.00
2023-01-23T17:32:46.160Z,1849.00
2023-01-23T17:33:46.129Z,1878.00
2023-01-23T17:34:50.219Z,1927.00
2023-01-23T17:35:46.061Z,1905.00
2023-01-23T17:36:46.020Z,1893.00
2023-01-23T17:37:45.975Z,1834.00
2023-01-23T17:38:45.956Z,1870.00
2023-01-23T17:39:45.913Z,1931.00
2023-01-23T17:40:45.860Z,1965.00
2023-01-23T17:41:45.824Z,2049.00
2023-01-23T17:42:45.791Z,2164.00
2023-01-23T17:43:45.753Z,2169.00
2023-01-23T17:44:45.813Z,2173.00
2023-01-23T17:45:45.777Z,2117.00
2023-01-23T17:46:45.649Z,2036.00
2023-01-23T17:47:45.609Z,1967.00
2023-01-23T17:48:45.587Z,1969.00
2023-01-23T17:49:45.545Z,1914.00
2023-01-23T17:50:45.526Z,1841.00
2023-01-23T17:55:45.553Z,1742.00
2023-01-23T17:56:45.590Z,1699.00
2023-01-23T17:57:45.616Z,1614.00
2023-01-23T17:58:45.645Z,1620.00
2023-01-23T17:59:45.679Z,1613.00
2023-01-23T18:00:45.850Z,1629.00
2023-01-23T18:01:45.729Z,1615.00
2023-01-23T18:02:45.752Z,1532.00
2023-01-23T18:03:45.780Z,1576.00
2023-01-23T18:04:45.865Z,1635.00
2023-01-23T18:05:45.822Z,1558.00
2023-01-23T18:06:45.863Z,1644.00
2023-01-23T18:07:53.779Z,1679.00
2023-01-23T18:08:46.838Z,1690.00
2023-01-23T18:09:45.788Z,1744.00
2023-01-23T18:10:45.759Z,1820.00
2023-01-23T18:11:45.776Z,1917.00
2023-01-23T18:12:45.683Z,1993.00
2023-01-23T18:13:45.671Z,2060.00
2023-01-23T18:14:45.673Z,2085.00
2023-01-23T18:15:45.585Z,2020.00
2023-01-23T18:16:45.758Z,1969.00
2023-01-23T18:17:45.517Z,1975.00
2023-01-23T18:21:45.517Z,1831.00
2023-01-23T18:22:45.528Z,1839.00
2023-01-23T18:23:45.604Z,1842.00
2023-01-23T18:24:45.566Z,1869.00
2023-01-23T18:25:45.576Z,1863.00
2023-01-23T18:26:45.561Z,1892.00
2023-01-23T18:27:45.580Z,1774.00
2023-01-23T18:28:45.590Z,1667.00
2023-01-23T18:29:45.605Z,1648.00
2023-01-23T18:30:45.609Z,1687.00
2023-01-23T18:31:45.702Z,2256.00
2023-01-23T18:32:45.720Z,2305.00
2023-01-23T18:33:45.670Z,2222.00
2023-01-23T18:34:45.692Z,2257.00
2023-01-23T18:35:45.702Z,2187.00
2023-01-23T18:36:45.741Z,2178.00
2023-01-23T18:37:45.768Z,2093.00
2023-01-23T18:38:45.780Z,2068.00
2023-01-23T18:39:45.822Z,2331.00
2023-01-23T18:40:45.859Z,2362.00
2023-01-23T18:41:45.895Z,2225.00
2023-01-23T18:42:45.941Z,2284.00
2023-01-23T18:43:45.987Z,2208.00
2023-01-23T18:44:46.047Z,2092.00
2023-01-23T18:45:46.084Z,1870.00
2023-01-23T18:46:46.074Z,1763.00
2023-01-23T18:47:46.113Z,1794.00
2023-01-23T18:48:46.207Z,1817.00
2023-01-23T18:49:46.170Z,1867.00
2023-01-23T18:50:46.183Z,1907.00
2023-01-23T18:51:46.200Z,1985.00
2023-01-23T18:52:46.227Z,2024.00
2023-01-23T18:53:46.263Z,1995.00
2023-01-23T18:54:46.305Z,2001.00
2023-01-23T18:55:46.341Z,2057.00
2023-01-23T18:56:46.412Z,2032.00
2023-01-23T18:57:46.414Z,1987.00
2023-01-23T18:58:46.441Z,1970.00
2023-01-23T18:59:46.467Z,1947.00
2023-01-23T19:00:46.530Z,1976.00
2023-01-23T19:01:46.529Z,1990.00
2023-01-23T19:02:46.548Z,2049.00
2023-01-23T19:03:46.625Z,2086.00
2023-01-23T19:04:46.996Z,2127.00
2023-01-23T19:05:47.055Z,2179.00
2023-01-23T19:06:47.341Z,2210.00
2023-01-23T19:07:47.544Z,2103.00
2023-01-23T19:08:47.761Z,2049.00
2023-01-23T19:09:47.945Z,2079.00
2023-01-23T19:10:49.136Z,2079.00
2023-01-23T19:11:48.143Z,2062.00
2023-01-23T19:12:48.175Z,2165.00
2023-01-23T19:13:48.197Z,2201.00
2023-01-23T19:14:48.231Z,2228.00
2023-01-23T19:15:48.281Z,2331.00
2023-01-23T19:16:49.143Z,2245.00
2023-01-23T19:17:48.352Z,1981.00
2023-01-23T19:18:48.369Z,1796.00
2023-01-23T19:19:48.360Z,1808.00
2023-01-23T19:20:48.496Z,1871.00
2023-01-23T19:21:48.393Z,2012.00
2023-01-23T19:22:48.414Z,2045.00
2023-01-23T19:23:48.471Z,2028.00
2023-01-23T19:24:48.451Z,1979.00
2023-01-23T19:25:48.475Z,1929.00
2023-01-23T19:26:48.507Z,1844.00
2023-01-23T19:27:48.521Z,1803.00
2023-01-23T19:28:48.549Z,1802.00
2023-01-23T19:29:48.566Z,1812.00
2023-01-23T19:30:48.646Z,1851.00
2023-01-23T19:32:04.176Z,1911.00
2023-01-23T19:32:49.545Z,1906.00
2023-01-23T19:33:48.518Z,1875.00
2023-01-23T19:34:48.477Z,1918.00
2023-01-23T19:35:48.464Z,1897.00
2023-01-23T19:36:48.496Z,1906.00
2023-01-23T19:37:48.374Z,1855.00
2023-01-23T19:38:48.347Z,1918.00
2023-01-23T19:39:48.318Z,1982.00
2023-01-23T19:40:48.301Z,2094.00
2023-01-23T19:41:48.288Z,2080.00
2023-01-23T19:42:56.374Z,2080.00
2023-01-23T19:43:49.286Z,2080.00
2023-01-23T19:44:48.230Z,1944.00
2023-01-23T19:45:48.197Z,1946.00
2023-01-23T19:46:48.194Z,1943.00
2023-01-23T19:47:48.143Z,1868.00
2023-01-23T19:48:48.116Z,1834.00
2023-01-23T19:49:48.079Z,1809.00
2023-01-23T19:50:48.036Z,1838.00
2023-01-23T19:51:48.028Z,1874.00
2023-01-23T19:52:48.066Z,1749.00
2023-01-23T19:53:47.985Z,1608.00
2023-01-23T19:54:48.003Z,1610.00
2023-01-23T19:55:48.021Z,1566.00
2023-01-23T19:56:48.036Z,1586.00
2023-01-23T19:57:48.058Z,1577.00
2023-01-23T19:58:48.089Z,1610.00
2023-01-23T19:59:48.094Z,1600.00
2023-01-23T20:00:48.142Z,1590.00
2023-01-23T20:01:48.181Z,1531.00
2023-01-23T20:02:48.150Z,1536.00
2023-01-23T20:03:48.173Z,1561.00
2023-01-23T20:04:48.238Z,1562.00
2023-01-23T20:05:48.210Z,1583.00
2023-01-23T20:06:48.229Z,1574.00
2023-01-23T20:07:48.251Z,1623.00
2023-01-23T20:08:48.353Z,1627.00
2023-01-23T20:09:48.287Z,1583.00
2023-01-23T20:10:48.317Z,1604.00
2023-01-23T20:11:48.319Z,1598.00
2023-01-23T20:12:48.345Z,1604.00
2023-01-23T20:13:48.360Z,1584.00
2023-01-23T20:14:48.365Z,1606.00
2023-01-23T20:15:48.380Z,1619.00
2023-01-23T20:16:48.386Z,1561.00
2023-01-23T20:17:48.386Z,1555.00
2023-01-23T20:18:48.373Z,1541.00
2023-01-23T20:19:48.367Z,1503.00
2023-01-23T20:20:48.370Z,1446.00
2023-01-23T20:21:48.742Z,1493.00
2023-01-23T20:22:48.361Z,1511.00
2023-01-23T20:23:48.377Z,1533.00
2023-01-23T20:24:48.412Z,1533.00
2023-01-23T20:25:48.341Z,1568.00
2023-01-23T20:26:48.335Z,1547.00
2023-01-23T20:27:48.335Z,1609.00
2023-01-23T20:28:48.327Z,1622.00
2023-01-23T20:29:48.320Z,1593.00
2023-01-23T20:30:48.328Z,1589.00
2023-01-23T20:31:48.369Z,1627.00
2023-01-23T20:32:48.336Z,1612.00
2023-01-23T20:33:48.332Z,1594.00
2023-01-23T20:34:48.320Z,1558.00
2023-01-23T20:35:48.320Z,1528.00
2023-01-23T20:36:48.316Z,1515.00
2023-01-23T20:37:48.319Z,1542.00
2023-01-23T20:38:48.326Z,1525.00
2023-01-23T20:39:48.325Z,1494.00
2023-01-23T20:40:48.390Z,1441.00
2023-01-23T20:41:48.335Z,1444.00
2023-01-23T20:42:48.311Z,1481.00
2023-01-23T20:43:48.318Z,1472.00
2023-01-23T20:44:48.317Z,1440.00
2023-01-23T20:45:48.304Z,1494.00
2023-01-23T20:46:48.428Z,1431.00
2023-01-23T20:47:48.731Z,1343.00
2023-01-23T20:48:49.027Z,1338.00
2023-01-23T20:49:49.212Z,1321.00
2023-01-23T20:50:49.445Z,1274.00
2023-01-23T20:51:49.671Z,1227.00
2023-01-23T20:52:49.877Z,1172.00
2023-01-23T20:53:50.170Z,1213.00
2023-01-23T20:54:50.460Z,1238.00
2023-01-23T20:55:50.642Z,1360.00
2023-01-23T20:56:50.950Z,1368.00
2023-01-23T20:57:51.121Z,1395.00
2023-01-23T20:58:51.475Z,1431.00
2023-01-23T20:59:51.649Z,1422.00
2023-01-23T21:00:51.855Z,1455.00
2023-01-23T21:01:52.079Z,1431.00
2023-01-23T21:16:55.659Z,1866.00
2023-01-23T21:58:05.544Z,1403.00
2023-01-23T21:59:05.853Z,1425.00
2023-01-23T22:00:06.060Z,1464.00
2023-01-23T22:01:06.283Z,1455.00
2023-01-23T22:13:09.174Z,1595.00
2023-01-23T22:14:09.390Z,1569.00
2023-01-23T22:15:09.623Z,1625.00
2023-01-23T22:16:09.893Z,1665.00
2023-01-23T22:17:10.092Z,1621.00
2023-01-23T22:19:10.533Z,1613.00
2023-01-23T22:20:10.787Z,1599.00
2023-01-23T22:21:11.058Z,1606.00
2023-01-23T22:22:11.269Z,1606.00
2023-01-23T22:23:11.478Z,1610.00
2023-01-23T22:24:11.832Z,1616.00
2023-01-23T22:25:11.997Z,1616.00
2023-01-23T22:26:12.201Z,1665.00
2023-01-23T22:27:12.576Z,1674.00
2023-01-23T22:28:13.689Z,1627.00
2023-01-23T22:29:12.742Z,1635.00
2023-01-23T22:30:12.755Z,1641.00
2023-01-23T22:31:12.808Z,1662.00
2023-01-23T22:32:12.885Z,1636.00
2023-01-23T22:33:12.798Z,1639.00
2023-01-23T22:34:12.822Z,1634.00
2023-01-23T22:35:12.859Z,1706.00
2023-01-23T22:36:12.871Z,1745.00
2023-01-23T22:37:12.892Z,1715.00
2023-01-23T22:38:12.918Z,1647.00
2023-01-23T22:39:12.946Z,1741.00
2023-01-23T22:40:12.979Z,1715.00
2023-01-23T22:41:13.005Z,1737.00
2023-01-23T22:42:13.045Z,1730.00
2023-01-23T22:43:13.125Z,1682.00
2023-01-23T22:44:13.048Z,1711.00
2023-01-23T22:45:13.063Z,1561.00
2023-01-23T22:46:13.095Z,1548.00
2023-01-23T22:47:13.150Z,1554.00
2023-01-23T22:48:13.153Z,1560.00
2023-01-23T22:49:13.178Z,1561.00
2023-01-23T22:50:13.219Z,1601.00
2023-01-23T22:51:13.217Z,1582.00
2023-01-23T22:52:13.249Z,1607.00
2023-01-23T22:53:13.280Z,1600.00
2023-01-23T22:54:13.310Z,1641.00
2023-01-23T22:55:13.427Z,1618.00
2023-01-23T22:56:13.392Z,1619.00
2023-01-23T22:57:13.423Z,1640.00
2023-01-23T22:58:13.462Z,1663.00